Terminal Aerodrome Forecast
Issued by NWS Buffalo, NY

Home | Current Version | Previous Version | Text Only | Print | Product List | Glossary On
Versions: 1 2 3 4 5 6 7 8 9 10 11 12 13 14 15 16 17 18 19 20 21 22 23 24 25 26
584
FTUS41 KBUF 062121 AAA
TAFROC
TAF AMD
KROC 062121Z 0621/0718 12010KT P6SM BKN110
     FM062200 12006KT 6SM -RA OVC050
     FM070200 13008KT 2SM -RASN OVC015
     FM070600 16007KT P6SM VCSH OVC020
     FM071000 21011G19KT P6SM BKN020
     FM071200 25013G23KT P6SM BKN020
     FM071400 26014G22KT P6SM BKN120=

USA.gov is the U.S. government's official web portal to all federal, state and local government web resources and services.